Time;durP1;ratioP1;P1;durP2;ratioP2;P2;SDS_P1;SDS_P2;PMS_P1;PMS_P2;Temp;Humidity;BMP_temperature;BMP_pressure;BME280_temperature;BME280_humidity;BME280_pressure;Samples;Min_cycle;Max_cycle;Signal;HPM_P1;HPM_P2
2022/11/20 00:01:43;;;;;;;20.75;6.63;;;11.00;73.30;;;;;;7384922;19;20058;-90
2022/11/20 00:04:12;;;;;;;20.17;6.80;;;11.00;73.30;;;;;;7388395;19;20022;-89
2022/11/20 00:06:41;;;;;;;13.88;6.38;;;11.00;73.30;;;;;;7392777;19;20014;-90
2022/11/20 00:09:13;;;;;;;13.75;6.97;;;11.00;73.20;;;;;;7413689;19;20010;-89
2022/11/20 00:11:42;;;;;;;20.30;7.75;;;11.00;73.20;;;;;;7396914;19;20102;-89
2022/11/20 00:14:14;;;;;;;20.15;8.07;;;11.00;73.10;;;;;;7393402;19;20142;-89
2022/11/20 00:16:43;;;;;;;23.42;7.63;;;10.90;73.10;;;;;;7384932;19;20026;-89
2022/11/20 00:19:12;;;;;;;20.48;6.85;;;10.90;73.00;;;;;;7382898;19;20018;-89
2022/11/20 00:21:41;;;;;;;18.45;6.75;;;10.90;73.00;;;;;;7385839;19;20027;-89
2022/11/20 00:24:11;;;;;;;18.38;7.70;;;10.80;73.10;;;;;;7407089;19;20035;-90
2022/11/20 00:26:40;;;;;;;17.48;6.47;;;10.80;73.10;;;;;;7389992;19;20020;-89
2022/11/20 00:29:13;;;;;;;15.75;6.70;;;10.80;73.10;;;;;;7400820;19;20022;-90
2022/11/20 00:31:42;;;;;;;14.90;6.07;;;10.70;73.00;;;;;;7383828;19;20110;-89
2022/11/20 00:34:12;;;;;;;9.77;4.90;;;10.70;73.10;;;;;;7380400;19;20031;-89
2022/11/20 00:36:40;;;;;;;10.75;5.18;;;10.60;73.00;;;;;;7377886;19;20018;-89
2022/11/20 00:39:09;;;;;;;11.82;4.43;;;10.60;73.20;;;;;;7401276;19;20114;-89
2022/11/20 00:41:38;;;;;;;11.02;4.70;;;10.60;73.30;;;;;;7378262;19;20018;-89
2022/11/20 00:44:07;;;;;;;13.38;5.00;;;10.60;73.10;;;;;;7380562;19;20094;-89
2022/11/20 00:46:38;;;;;;;13.23;5.80;;;10.60;73.10;;;;;;7386532;19;20087;-89
2022/11/20 00:49:07;;;;;;;15.00;4.80;;;10.60;72.90;;;;;;7380645;19;20014;-89
2022/11/20 00:51:35;;;;;;;9.45;4.05;;;10.50;72.70;;;;;;7379975;19;20032;-90
2022/11/20 00:54:04;;;;;;;11.88;4.55;;;10.50;72.60;;;;;;7407417;19;20026;-89
2022/11/20 00:56:33;;;;;;;16.88;5.07;;;10.50;72.70;;;;;;7394300;19;20010;-89
2022/11/20 00:59:03;;;;;;;19.58;8.18;;;10.50;72.60;;;;;;7384055;19;20026;-89
2022/11/20 01:01:32;;;;;;;16.27;6.00;;;10.50;72.50;;;;;;7378821;19;20015;-89
2022/11/20 01:04:03;;;;;;;14.07;5.55;;;10.50;72.50;;;;;;7382124;19;20044;-89
2022/11/20 01:06:33;;;;;;;16.88;7.10;;;10.40;72.30;;;;;;7380140;19;20031;-89
2022/11/20 01:09:04;;;;;;;16.80;6.63;;;10.40;72.30;;;;;;7405433;19;20391;-89
2022/11/20 01:11:35;;;;;;;22.30;9.20;;;10.40;72.20;;;;;;7398386;19;20002;-89
2022/11/20 01:14:05;;;;;;;12.60;5.70;;;10.40;71.90;;;;;;7389937;19;20022;-89
2022/11/20 01:16:36;;;;;;;11.68;4.55;;;10.30;72.00;;;;;;7381735;19;20018;-88
2022/11/20 01:19:09;;;;;;;12.45;4.85;;;10.30;72.00;;;;;;7376070;19;20018;-88
2022/11/20 01:21:40;;;;;;;16.25;4.88;;;10.20;71.80;;;;;;7374605;19;20019;-88
2022/11/20 01:24:10;;;;;;;13.63;5.90;;;10.20;71.90;;;;;;7398566;19;20086;-88
2022/11/20 01:26:41;;;;;;;17.10;6.65;;;10.10;71.70;;;;;;7382086;19;20328;-88
2022/11/20 01:29:13;;;;;;;15.90;6.18;;;10.10;71.60;;;;;;7382426;19;20011;-88
2022/11/20 01:31:41;;;;;;;13.00;4.75;;;10.10;71.40;;;;;;7381762;19;20025;-87
2022/11/20 01:34:15;;;;;;;17.85;6.10;;;10.10;71.60;;;;;;7380145;19;20101;-87
2022/11/20 01:36:44;;;;;;;15.20;5.85;;;10.00;71.30;;;;;;7381208;19;20094;-87
2022/11/20 01:39:16;;;;;;;12.45;5.13;;;10.00;71.20;;;;;;7406461;19;20540;-87
2022/11/20 01:44:50;;;;;;;11.27;4.63;;;10.00;71.90;;;;;;7384633;19;19938;-87
2022/11/20 01:47:24;;;;;;;17.17;4.30;;;9.90;71.10;;;;;;7386713;19;20026;-88
2022/11/20 01:50:01;;;;;;;13.98;4.68;;;9.90;71.10;;;;;;7386337;19;20014;-87
2022/11/20 01:52:34;;;;;;;9.18;4.30;;;9.80;71.10;;;;;;7389399;19;20090;-87
2022/11/20 01:55:09;;;;;;;9.95;4.20;;;9.80;71.10;;;;;;7390623;19;20429;-88
2022/11/20 01:57:38;;;;;;;13.38;3.97;;;9.80;71.10;;;;;;7382924;19;20084;-87
2022/11/20 02:00:10;;;;;;;17.67;4.00;;;9.80;70.90;;;;;;7413243;19;20493;-87
2022/11/20 02:02:40;;;;;;;7.80;4.00;;;9.80;70.80;;;;;;7400756;19;20026;-87
2022/11/20 02:05:19;;;;;;;14.93;3.78;;;9.80;70.80;;;;;;7391838;19;20902;-88
2022/11/20 02:07:49;;;;;;;10.02;3.60;;;9.70;70.60;;;;;;7386942;19;20011;-88
2022/11/20 02:10:18;;;;;;;7.57;2.97;;;9.70;71.50;;;;;;7383501;19;20035;-88
2022/11/20 02:15:28;;;;;;;9.45;3.50;;;9.80;70.90;;;;;;7384545;19;20330;-88
2022/11/20 02:17:57;;;;;;;9.25;3.50;;;9.80;71.70;;;;;;7413433;19;20039;-89
2022/11/20 02:20:29;;;;;;;13.60;3.28;;;9.80;70.90;;;;;;7388548;19;20014;-88
2022/11/20 02:22:59;;;;;;;;;;;9.90;70.80;;;;;;7384903;19;20085;-89
2022/11/20 02:25:32;;;;;;;12.48;3.72;;;9.90;70.80;;;;;;7382601;19;20290;-89
2022/11/20 02:28:01;;;;;;;7.63;3.42;;;9.90;70.70;;;;;;7377682;19;20097;-88
2022/11/20 02:30:29;;;;;;;11.85;3.63;;;10.00;70.60;;;;;;7378776;19;20033;-88
2022/11/20 02:32:58;;;;;;;10.73;3.78;;;9.90;70.50;;;;;;7402353;19;20018;-88
2022/11/20 02:35:47;;;;;;;9.48;4.28;;;9.90;70.70;;;;;;7377459;19;20015;-88
2022/11/20 02:38:16;;;;;;;13.68;4.78;;;9.90;70.60;;;;;;7378277;19;20014;-88
2022/11/20 02:40:48;;;;;;;8.75;5.13;;;9.90;70.60;;;;;;7376434;19;20040;-87
2022/11/20 02:43:18;;;;;;;10.63;5.32;;;9.90;71.60;;;;;;7376730;19;20094;-88
2022/11/20 02:45:47;;;;;;;11.57;4.45;;;9.90;70.90;;;;;;7376959;19;20158;-87
2022/11/20 02:48:16;;;;;;;11.98;4.65;;;9.80;71.10;;;;;;7400076;19;20077;-85
2022/11/20 02:50:44;;;;;;;10.82;5.10;;;9.90;71.30;;;;;;7403036;19;20357;-88
2022/11/20 02:53:13;;;;;;;12.75;4.00;;;9.80;71.20;;;;;;7379184;19;20025;-88
2022/11/20 02:55:42;;;;;;;10.50;4.40;;;9.80;71.30;;;;;;7378285;19;20018;-88
2022/11/20 02:58:13;;;;;;;13.45;4.10;;;9.80;71.30;;;;;;7378477;19;20465;-88
2022/11/20 03:00:42;;;;;;;9.52;3.20;;;9.80;72.10;;;;;;7381021;19;20457;-89
2022/11/20 03:03:11;;;;;;;10.73;3.80;;;9.80;71.30;;;;;;7402029;19;20014;-88
2022/11/20 03:05:40;;;;;;;9.73;3.42;;;9.80;71.20;;;;;;7377061;19;20014;-88
2022/11/20 03:08:08;;;;;;;6.88;3.25;;;9.80;71.30;;;;;;7377024;19;20018;-88
2022/11/20 03:10:37;;;;;;;10.43;3.03;;;9.80;71.20;;;;;;7378502;19;20086;-88
2022/11/20 03:13:06;;;;;;;11.93;3.20;;;9.80;71.40;;;;;;7376717;19;20093;-88
2022/11/20 03:15:39;;;;;;;8.30;3.40;;;9.80;71.30;;;;;;7377640;19;20016;-88
2022/11/20 03:18:07;;;;;;;11.18;3.55;;;9.80;71.20;;;;;;7399913;19;20014;-88
2022/11/20 03:20:37;;;;;;;8.43;3.70;;;9.80;71.00;;;;;;7376744;19;20022;-89
2022/11/20 03:23:06;;;;;;;9.02;3.42;;;9.80;71.10;;;;;;7378960;19;20014;-89
2022/11/20 03:25:35;;;;;;;8.30;3.60;;;9.80;70.90;;;;;;7383027;19;20007;-89
2022/11/20 03:28:04;;;;;;;9.00;3.22;;;9.80;70.90;;;;;;7385249;19;20010;-90
2022/11/20 03:30:33;;;;;;;12.50;3.22;;;9.80;70.80;;;;;;7390179;19;20030;-89
2022/11/20 03:33:05;;;;;;;13.43;3.13;;;9.80;70.90;;;;;;7412492;19;20030;-90
2022/11/20 03:35:33;;;;;;;;;;;9.80;70.90;;;;;;7394544;19;20015;-90
2022/11/20 03:38:05;;;;;;;10.77;2.80;;;9.90;70.80;;;;;;7394768;19;19923;-89
2022/11/20 03:40:36;;;;;;;8.57;2.90;;;9.80;70.80;;;;;;7390205;19;20026;-89
2022/11/20 03:43:04;;;;;;;9.52;3.22;;;9.80;71.00;;;;;;7388533;19;20062;-89
2022/11/20 03:45:33;;;;;;;8.57;3.30;;;9.90;71.10;;;;;;7379859;19;20014;-89
2022/11/20 03:48:04;;;;;;;9.27;3.63;;;9.90;70.90;;;;;;7395271;19;20098;-89
2022/11/20 03:50:33;;;;;;;12.00;4.88;;;9.90;70.60;;;;;;7377452;19;20022;-89
2022/11/20 03:53:02;;;;;;;7.38;3.83;;;9.90;70.20;;;;;;7376865;19;20022;-89
2022/11/20 03:55:30;;;;;;;7.60;3.92;;;9.90;70.20;;;;;;7378536;19;20094;-89
2022/11/20 03:57:59;;;;;;;11.77;3.88;;;9.90;70.20;;;;;;7381219;19;20010;-89
2022/11/20 04:00:28;;;;;;;10.10;4.20;;;9.90;70.20;;;;;;7392789;19;20014;-89
2022/11/20 04:03:00;;;;;;;11.50;4.72;;;9.90;70.30;;;;;;7406032;19;20023;-89
2022/11/20 04:05:31;;;;;;;15.77;5.50;;;9.90;70.20;;;;;;7382713;19;20035;-89
2022/11/20 04:08:00;;;;;;;;;;;9.90;70.30;;;;;;7382628;19;20098;-87
2022/11/20 04:10:28;;;;;;;9.07;3.65;;;10.00;70.20;;;;;;7382086;19;19988;-89
2022/11/20 04:12:57;;;;;;;14.30;4.32;;;9.90;70.20;;;;;;7381636;19;20069;-88
2022/11/20 04:15:26;;;;;;;8.75;3.95;;;9.80;70.50;;;;;;7381811;19;20086;-89
2022/11/20 04:17:56;;;;;;;10.02;5.13;;;9.90;70.70;;;;;;7397845;19;20103;-89
2022/11/20 04:20:24;;;;;;;13.60;5.75;;;9.90;70.80;;;;;;7377799;19;20101;-88
2022/11/20 04:22:58;;;;;;;10.75;5.47;;;9.90;70.70;;;;;;7375618;19;20595;-88
2022/11/20 04:25:27;;;;;;;16.15;5.68;;;9.90;70.70;;;;;;7377992;19;20093;-88
2022/11/20 04:27:56;;;;;;;10.43;4.60;;;9.90;70.70;;;;;;7376943;19;20027;-88
2022/11/20 04:30:24;;;;;;;11.43;4.70;;;9.90;71.00;;;;;;7373569;19;20623;-87
2022/11/20 04:32:54;;;;;;;10.75;5.20;;;9.90;71.10;;;;;;7399131;19;20349;-88
2022/11/20 04:35:22;;;;;;;13.38;5.55;;;10.00;71.10;;;;;;7376823;19;20017;-88
2022/11/20 04:37:54;;;;;;;10.75;4.70;;;9.90;70.90;;;;;;7376529;19;20358;-88
2022/11/20 04:40:25;;;;;;;9.85;4.60;;;9.90;70.80;;;;;;7376033;19;20018;-89
2022/11/20 04:42:54;;;;;;;8.68;4.05;;;9.90;70.90;;;;;;7374463;19;20121;-89
2022/11/20 04:45:22;;;;;;;8.20;4.47;;;9.90;70.90;;;;;;7373195;19;20014;-88
2022/11/20 04:47:51;;;;;;;12.05;5.13;;;9.90;70.90;;;;;;7394585;19;20035;-89
2022/11/20 04:50:20;;;;;;;21.75;5.20;;;9.90;70.80;;;;;;7372138;19;20014;-89
2022/11/20 04:52:48;;;;;;;11.32;5.20;;;9.90;70.80;;;;;;7374587;19;20467;-89
2022/11/20 04:55:17;;;;;;;12.23;4.72;;;9.80;70.80;;;;;;7376545;19;20014;-89
2022/11/20 04:57:52;;;;;;;8.57;4.82;;;9.80;70.90;;;;;;7378413;19;20019;-88
2022/11/20 05:00:21;;;;;;;6.55;4.22;;;9.80;70.90;;;;;;7374589;19;20023;-87
2022/11/20 05:02:50;;;;;;;15.93;4.70;;;9.80;70.80;;;;;;7400274;19;20023;-88
2022/11/20 05:05:19;;;;;;;13.18;4.57;;;9.80;70.60;;;;;;7377252;19;20326;-88
2022/11/20 05:07:48;;;;;;;8.43;3.95;;;9.80;70.90;;;;;;7375828;19;20441;-89
2022/11/20 05:10:17;;;;;;;9.93;4.20;;;9.70;71.00;;;;;;7377696;19;20011;-89
2022/11/20 05:12:48;;;;;;;9.45;3.53;;;9.70;71.10;;;;;;7383221;19;20082;-88
2022/11/20 05:15:17;;;;;;;15.75;4.65;;;9.80;71.10;;;;;;7388578;19;20267;-87
2022/11/20 05:17:50;;;;;;;14.07;3.88;;;9.70;71.80;;;;;;7405471;19;20080;-88
2022/11/20 05:20:19;;;;;;;13.27;4.15;;;9.70;71.20;;;;;;7381955;19;20014;-88
2022/11/20 05:22:48;;;;;;;14.50;3.83;;;9.70;71.30;;;;;;7375113;19;20015;-88
2022/11/20 05:25:16;;;;;;;15.98;3.53;;;9.70;71.40;;;;;;7373010;19;20086;-88
2022/11/20 05:27:48;;;;;;;9.10;3.22;;;9.60;71.50;;;;;;7373252;19;20014;-88
2022/11/20 05:30:17;;;;;;;9.93;3.38;;;9.60;71.60;;;;;;7385738;19;20421;-87
2022/11/20 05:32:46;;;;;;;10.98;3.35;;;9.60;71.90;;;;;;7394979;19;20498;-88
2022/11/20 05:35:14;;;;;;;11.27;4.03;;;9.60;71.90;;;;;;7373233;19;20123;-88
2022/11/20 05:37:43;;;;;;;9.00;3.47;;;9.60;72.00;;;;;;7373618;19;20014;-89
2022/11/20 05:40:14;;;;;;;6.30;3.60;;;9.60;72.10;;;;;;7375956;19;20104;-89
2022/11/20 05:42:43;;;;;;;9.07;3.25;;;9.60;72.00;;;;;;7375302;19;20018;-88
2022/11/20 05:45:14;;;;;;;8.25;3.78;;;9.60;71.90;;;;;;7392980;19;20035;-87
2022/11/20 05:47:43;;;;;;;;;;;9.60;71.90;;;;;;7373400;19;20011;-88
2022/11/20 05:50:12;;;;;;;13.48;3.13;;;9.60;72.10;;;;;;7370209;19;19933;-89
2022/11/20 05:52:40;;;;;;;10.98;3.53;;;9.60;71.90;;;;;;7371328;19;20015;-89
2022/11/20 05:55:10;;;;;;;9.05;3.42;;;9.60;71.90;;;;;;7377763;19;20022;-89
2022/11/20 05:57:39;;;;;;;9.73;3.08;;;9.60;71.80;;;;;;7380271;19;20390;-89
2022/11/20 06:00:09;;;;;;;9.43;4.20;;;9.70;71.70;;;;;;7397254;19;20018;-90
2022/11/20 06:02:41;;;;;;;15.80;4.73;;;9.70;71.30;;;;;;7375840;19;20070;-89
2022/11/20 06:05:10;;;;;;;;;;;9.70;71.40;;;;;;7378782;19;20015;-89
2022/11/20 06:07:38;;;;;;;11.48;4.07;;;9.80;71.50;;;;;;7379072;19;19974;-89
2022/11/20 06:10:08;;;;;;;8.68;4.20;;;9.80;71.30;;;;;;7383074;19;20026;-89
2022/11/20 06:12:36;;;;;;;18.42;4.47;;;9.80;71.20;;;;;;7384670;19;20016;-89
2022/11/20 06:15:06;;;;;;;12.00;4.45;;;9.80;71.20;;;;;;7405045;19;20039;-89
2022/11/20 06:17:34;;;;;;;12.60;4.18;;;9.80;71.30;;;;;;7381151;19;20014;-89
2022/11/20 06:20:06;;;;;;;17.25;4.95;;;9.80;71.30;;;;;;7383366;19;20077;-89
2022/11/20 06:22:35;;;;;;;15.43;4.72;;;9.80;71.50;;;;;;7389975;19;20019;-90
2022/11/20 06:25:04;;;;;;;8.38;4.97;;;9.80;71.50;;;;;;7403777;19;20068;-89
2022/11/20 06:27:33;;;;;;;12.05;4.50;;;9.70;71.50;;;;;;7397630;19;20026;-89
2022/11/20 06:30:01;;;;;;;10.20;4.57;;;9.70;71.50;;;;;;7409798;19;20022;-90
2022/11/20 06:32:30;;;;;;;11.48;4.50;;;9.70;71.50;;;;;;7401615;19;20011;-90
2022/11/20 06:34:59;;;;;;;9.43;4.20;;;9.70;71.50;;;;;;7402924;19;20806;-90
2022/11/20 06:37:30;;;;;;;14.95;4.18;;;9.70;71.50;;;;;;7393704;19;20438;-90
2022/11/20 06:39:58;;;;;;;8.50;3.33;;;9.70;71.60;;;;;;7390730;19;20042;-89
2022/11/20 06:42:27;;;;;;;12.57;4.07;;;9.70;71.80;;;;;;7381959;19;20087;-88
2022/11/20 06:44:56;;;;;;;12.27;4.70;;;9.70;71.90;;;;;;7401858;19;20018;-89
2022/11/20 06:47:25;;;;;;;8.18;4.35;;;9.70;71.80;;;;;;7382592;19;20078;-89
2022/11/20 06:49:54;;;;;;;11.95;5.05;;;9.70;71.80;;;;;;7387393;19;20019;-89
2022/11/20 06:52:23;;;;;;;11.20;5.00;;;9.70;71.80;;;;;;7393831;19;20061;-89
2022/11/20 06:54:54;;;;;;;11.55;4.57;;;9.80;71.90;;;;;;7390643;19;20094;-90
2022/11/20 06:57:23;;;;;;;9.40;4.35;;;9.80;71.90;;;;;;7388773;19;20034;-89
2022/11/20 06:59:51;;;;;;;14.18;4.65;;;9.80;71.70;;;;;;7411791;19;20083;-89
2022/11/20 07:02:20;;;;;;;13.85;5.00;;;9.80;71.70;;;;;;7389805;19;20011;-89
2022/11/20 07:04:49;;;;;;;10.80;4.43;;;9.90;72.70;;;;;;7386933;19;20127;-89
2022/11/20 07:07:17;;;;;;;16.60;4.95;;;9.90;72.10;;;;;;7380644;19;20019;-89
2022/11/20 07:09:46;;;;;;;11.15;4.53;;;9.90;72.40;;;;;;7381336;19;20027;-89
2022/11/20 07:12:17;;;;;;;11.13;5.15;;;10.00;72.70;;;;;;7402312;19;20015;-89
2022/11/20 07:14:46;;;;;;;14.13;4.68;;;10.00;72.80;;;;;;7381444;19;20027;-88
2022/11/20 07:17:15;;;;;;;10.93;5.10;;;10.10;72.70;;;;;;7381877;19;20015;-89
2022/11/20 07:19:44;;;;;;;15.55;4.57;;;10.10;72.50;;;;;;7381837;19;20018;-89
2022/11/20 07:22:13;;;;;;;12.30;4.45;;;10.20;72.40;;;;;;7376570;19;20329;-88
2022/11/20 07:24:41;;;;;;;15.23;4.80;;;10.20;72.50;;;;;;7375794;19;20044;-87
2022/11/20 07:27:10;;;;;;;9.10;4.32;;;10.20;72.60;;;;;;7400410;19;20082;-88
2022/11/20 07:29:41;;;;;;;15.25;5.07;;;10.20;72.70;;;;;;7373131;19;20463;-87
2022/11/20 07:32:10;;;;;;;21.70;6.80;;;10.20;72.60;;;;;;7375289;19;20513;-87
2022/11/20 07:34:39;;;;;;;15.80;8.13;;;10.20;72.80;;;;;;7377730;19;20018;-86
2022/11/20 07:37:07;;;;;;;10.23;4.93;;;10.20;73.00;;;;;;7374517;19;20013;-86
2022/11/20 07:39:36;;;;;;;13.95;5.07;;;10.20;73.00;;;;;;7377223;19;20024;-86
2022/11/20 07:42:05;;;;;;;23.35;4.47;;;10.30;72.90;;;;;;7398697;19;20675;-86
2022/11/20 07:44:34;;;;;;;13.40;4.57;;;10.30;72.90;;;;;;7378926;19;20035;-87
2022/11/20 07:47:05;;;;;;;14.13;4.32;;;10.30;72.90;;;;;;7385253;19;20018;-86
2022/11/20 07:49:33;;;;;;;;;;;10.20;72.60;;;;;;7381301;19;20021;-86
2022/11/20 07:52:02;;;;;;;11.38;3.67;;;10.40;72.90;;;;;;7376277;19;20536;-86
2022/11/20 07:54:31;;;;;;;12.82;4.28;;;10.40;72.90;;;;;;7374339;19;20024;-86
2022/11/20 07:56:59;;;;;;;12.52;5.32;;;10.50;72.80;;;;;;7398155;19;20102;-86
2022/11/20 07:59:28;;;;;;;19.80;6.70;;;10.50;72.90;;;;;;7377180;19;20639;-86
2022/11/20 08:01:57;;;;;;;19.65;6.60;;;10.60;73.10;;;;;;7374998;19;20880;-85
2022/11/20 08:04:29;;;;;;;14.68;5.13;;;10.60;73.00;;;;;;7374308;19;20014;-85
2022/11/20 08:06:57;;;;;;;15.52;4.93;;;10.60;72.90;;;;;;7374309;19;20014;-85
2022/11/20 08:09:26;;;;;;;17.10;4.90;;;10.70;72.90;;;;;;7373564;19;20032;-85
2022/11/20 08:14:36;;;;;;;15.73;4.65;;;10.70;72.90;;;;;;7375111;19;20054;-86
2022/11/20 08:17:05;;;;;;;15.27;4.00;;;10.70;72.20;;;;;;7373359;19;20520;-86
2022/11/20 08:19:36;;;;;;;12.82;4.95;;;10.70;72.30;;;;;;7374508;19;20010;-86
2022/11/20 08:22:05;;;;;;;10.63;5.00;;;10.80;72.60;;;;;;7374854;19;20118;-86
2022/11/20 08:24:33;;;;;;;15.75;5.50;;;10.80;72.50;;;;;;7374463;19;20093;-86
2022/11/20 08:27:02;;;;;;;11.98;4.82;;;10.90;72.70;;;;;;7394652;19;20425;-87
2022/11/20 08:29:31;;;;;;;14.43;5.20;;;10.90;72.70;;;;;;7374904;19;20318;-87
2022/11/20 08:32:00;;;;;;;16.05;5.70;;;11.00;72.60;;;;;;7375937;19;20025;-86
2022/11/20 08:34:29;;;;;;;13.85;5.40;;;11.00;72.50;;;;;;7378165;19;20494;-87
2022/11/20 08:37:00;;;;;;;14.60;5.15;;;11.00;72.40;;;;;;7381844;19;20082;-87
2022/11/20 08:39:28;;;;;;;13.88;6.22;;;11.00;72.50;;;;;;7384308;19;20022;-87
2022/11/20 08:41:57;;;;;;;21.10;6.30;;;11.00;72.50;;;;;;7408730;19;20082;-87
2022/11/20 08:44:26;;;;;;;14.55;5.78;;;10.90;72.20;;;;;;7397672;19;20062;-88
2022/11/20 08:46:55;;;;;;;19.92;6.65;;;11.00;72.60;;;;;;7398868;19;20031;-87
2022/11/20 08:49:23;;;;;;;25.60;6.07;;;11.00;72.60;;;;;;7381572;19;20010;-87
2022/11/20 08:51:54;;;;;;;13.13;5.95;;;11.00;72.70;;;;;;7375247;19;20337;-87
2022/11/20 08:54:26;;;;;;;12.48;5.78;;;11.00;72.70;;;;;;7372307;19;20117;-87
2022/11/20 08:56:54;;;;;;;18.08;6.88;;;11.10;72.90;;;;;;7397643;19;20034;-88
2022/11/20 08:59:23;;;;;;;16.52;5.75;;;11.10;73.10;;;;;;7374601;19;20030;-87
2022/11/20 09:01:52;;;;;;;16.55;5.70;;;11.10;73.20;;;;;;7375453;19;20016;-88
2022/11/20 09:04:21;;;;;;;14.68;6.00;;;11.10;73.20;;;;;;7373218;19;20432;-88
2022/11/20 09:06:51;;;;;;;15.80;6.18;;;11.20;73.60;;;;;;7377441;19;20425;-88
2022/11/20 09:09:20;;;;;;;20.15;5.95;;;11.20;73.60;;;;;;7379486;19;20035;-86
2022/11/20 09:11:52;;;;;;;16.75;5.90;;;11.30;73.60;;;;;;7398082;19;20330;-86
2022/11/20 09:14:21;;;;;;;26.33;6.43;;;11.20;73.70;;;;;;7372667;19;20018;-86
2022/11/20 09:16:50;;;;;;;15.35;5.55;;;11.30;73.80;;;;;;7371280;19;20061;-87
2022/11/20 09:19:18;;;;;;;12.43;5.30;;;11.20;74.00;;;;;;7372302;19;20070;-86
2022/11/20 09:21:47;;;;;;;12.15;5.50;;;11.00;74.60;;;;;;7372900;19;20148;-85
2022/11/20 09:24:16;;;;;;;12.98;5.90;;;11.00;74.80;;;;;;7391394;19;20018;-85
2022/11/20 09:26:44;;;;;;;13.15;5.95;;;11.10;75.10;;;;;;7372596;19;20391;-85
2022/11/20 09:29:16;;;;;;;13.75;6.30;;;11.10;75.20;;;;;;7370734;19;20018;-85
2022/11/20 09:31:44;;;;;;;16.27;7.03;;;11.20;75.70;;;;;;7371340;19;20097;-86
2022/11/20 09:34:13;;;;;;;11.90;5.85;;;11.20;75.90;;;;;;7374427;19;20074;-86
2022/11/20 09:36:42;;;;;;;12.75;5.93;;;11.30;76.20;;;;;;7384661;19;20807;-85
2022/11/20 09:39:10;;;;;;;15.13;6.32;;;11.30;76.20;;;;;;7400845;19;20118;-85
2022/11/20 09:42:05;;;;;;;21.90;8.00;;;11.30;76.20;;;;;;7373279;19;20078;-86
2022/11/20 09:44:51;;;;;;;16.45;7.75;;;11.20;76.10;;;;;;7370395;19;20018;-85
2022/11/20 09:47:27;;;;;;;14.98;6.05;;;11.20;76.20;;;;;;7378326;19;20077;-86
2022/11/20 09:50:08;;;;;;;19.65;6.20;;;11.20;76.20;;;;;;7378800;19;20079;-86
2022/11/20 09:52:51;;;;;;;16.40;5.35;;;11.20;76.60;;;;;;7377394;19;20105;-86
2022/11/20 09:55:21;;;;;;;13.38;5.38;;;11.30;76.80;;;;;;7379588;19;20013;-86
2022/11/20 09:57:53;;;;;;;29.83;5.43;;;11.30;76.60;;;;;;7379685;19;20368;-87
2022/11/20 10:00:25;;;;;;;14.85;5.70;;;11.40;76.70;;;;;;7380539;19;20532;-87
2022/11/20 10:03:01;;;;;;;17.58;5.35;;;11.40;77.00;;;;;;7401368;19;20014;-87
2022/11/20 10:05:34;;;;;;;12.13;4.93;;;11.40;76.90;;;;;;7381100;19;20022;-88
2022/11/20 10:08:11;;;;;;;12.82;4.80;;;11.40;76.90;;;;;;7381448;19;20011;-88
2022/11/20 10:10:46;;;;;;;12.07;4.63;;;11.40;76.90;;;;;;7383533;19;20011;-87
2022/11/20 10:13:30;;;;;;;14.35;4.60;;;11.40;77.00;;;;;;7386814;19;20446;-87
2022/11/20 10:16:12;;;;;;;12.65;4.22;;;11.30;77.20;;;;;;7387163;19;20018;-87
2022/11/20 10:18:56;;;;;;;16.75;4.72;;;11.30;77.60;;;;;;7387631;19;20450;-87
2022/11/20 10:21:33;;;;;;;9.35;3.97;;;11.40;77.70;;;;;;7383883;19;20029;-88
2022/11/20 10:24:27;;;;;;;11.10;4.20;;;11.30;77.90;;;;;;7403556;19;20050;-88
2022/11/20 10:27:04;;;;;;;12.48;4.30;;;11.20;78.40;;;;;;7388730;19;20297;-89
2022/11/20 10:29:36;;;;;;;14.27;4.63;;;11.20;78.70;;;;;;7382223;19;20683;-89
2022/11/20 10:32:14;;;;;;;14.00;4.60;;;11.30;78.80;;;;;;7383884;19;20098;-88
2022/11/20 10:34:52;;;;;;;13.20;4.93;;;11.20;78.80;;;;;;7390997;19;20015;-88
2022/11/20 10:37:25;;;;;;;13.70;4.15;;;11.30;79.40;;;;;;7387596;19;20027;-88
2022/11/20 10:39:59;;;;;;;10.98;4.60;;;11.40;79.40;;;;;;7379631;19;20015;-88
2022/11/20 10:42:34;;;;;;;12.40;3.88;;;11.50;79.10;;;;;;7381645;19;20021;-87
2022/11/20 10:45:22;;;;;;;11.60;3.72;;;11.60;79.40;;;;;;7406001;19;20031;-88
2022/11/20 10:47:54;;;;;;;12.27;3.58;;;11.50;79.40;;;;;;7386376;19;20020;-88
2022/11/20 10:50:25;;;;;;;9.45;3.60;;;11.60;79.40;;;;;;7391017;19;20011;-88
2022/11/20 10:53:05;;;;;;;9.48;3.97;;;11.60;79.30;;;;;;7390604;19;20015;-88
2022/11/20 10:55:42;;;;;;;11.80;3.83;;;11.60;79.50;;;;;;7395487;19;20022;-87
2022/11/20 10:58:16;;;;;;;8.48;3.80;;;11.70;79.70;;;;;;7393546;19;20027;-89
2022/11/20 11:00:44;;;;;;;9.00;3.90;;;11.60;79.70;;;;;;7394933;19;20019;-89
2022/11/20 11:03:27;;;;;;;9.25;3.35;;;11.50;80.20;;;;;;7410651;19;20434;-89
2022/11/20 11:06:01;;;;;;;11.80;3.42;;;11.40;80.50;;;;;;7389344;19;20021;-90
2022/11/20 11:08:36;;;;;;;10.38;3.92;;;11.50;80.50;;;;;;7383232;19;20015;-89
2022/11/20 11:11:17;;;;;;;8.68;4.18;;;11.60;80.40;;;;;;7384065;19;20411;-89
2022/11/20 11:13:46;;;;;;;9.90;4.40;;;11.60;80.30;;;;;;7390366;19;20085;-89
2022/11/20 11:16:24;;;;;;;14.23;3.90;;;11.60;80.30;;;;;;7404644;19;20040;-89
2022/11/20 11:19:07;;;;;;;11.13;3.65;;;11.70;80.50;;;;;;7399244;19;20007;-89
2022/11/20 11:21:36;;;;;;;7.43;3.20;;;11.70;80.30;;;;;;7388117;19;20152;-88
2022/11/20 11:24:06;;;;;;;13.07;4.82;;;11.70;79.90;;;;;;7407982;19;20019;-88
2022/11/20 11:26:35;;;;;;;17.65;7.50;;;11.70;79.90;;;;;;7384446;19;20014;-88
2022/11/20 11:29:07;;;;;;;22.67;10.13;;;11.70;80.00;;;;;;7384878;19;20019;-88
2022/11/20 11:31:37;;;;;;;9.55;4.60;;;11.60;80.20;;;;;;7385777;19;20014;-88
2022/11/20 11:34:15;;;;;;;5.97;3.70;;;11.60;80.20;;;;;;7400514;19;20027;-88
2022/11/20 11:36:45;;;;;;;6.88;2.97;;;11.60;80.20;;;;;;7383532;19;20081;-88
2022/11/20 11:39:18;;;;;;;5.63;3.28;;;11.60;80.20;;;;;;7401264;19;20024;-89
2022/11/20 11:41:47;;;;;;;7.03;3.03;;;11.50;80.10;;;;;;7385245;19;20514;-89
2022/11/20 11:47:01;;;;;;;5.45;3.15;;;11.50;80.10;;;;;;7390507;19;20098;-89
2022/11/20 11:49:35;;;;;;;6.32;3.35;;;11.50;80.20;;;;;;7388076;19;20027;-88
2022/11/20 11:52:12;;;;;;;7.35;2.83;;;11.50;80.30;;;;;;7383366;19;20081;-89
2022/11/20 11:54:46;;;;;;;7.18;2.97;;;11.40;80.50;;;;;;7379702;19;20025;-89
2022/11/20 11:57:23;;;;;;;5.65;2.92;;;11.30;80.50;;;;;;7403959;19;20025;-88
2022/11/20 12:00:03;;;;;;;4.75;2.67;;;11.30;80.60;;;;;;7395866;19;20018;-88
2022/11/20 12:02:40;;;;;;;5.95;2.95;;;11.30;80.40;;;;;;7388251;19;20063;-88
2022/11/20 12:05:21;;;;;;;8.57;3.05;;;11.40;80.30;;;;;;7374451;19;20025;-88
2022/11/20 12:07:55;;;;;;;4.97;3.28;;;11.30;80.40;;;;;;7373494;19;20022;-88
2022/11/20 12:10:26;;;;;;;63.75;5.28;;;11.30;80.50;;;;;;7375891;19;20106;-88
2022/11/20 12:12:58;;;;;;;;;;;11.40;80.70;;;;;;7374439;19;20054;-88
2022/11/20 12:15:32;;;;;;;6.75;3.10;;;11.50;80.90;;;;;;7375047;19;19922;-88
2022/11/20 12:18:00;;;;;;;9.95;3.10;;;11.30;80.60;;;;;;7397757;19;20022;-89
2022/11/20 12:20:37;;;;;;;5.88;3.00;;;11.30;80.80;;;;;;7374894;19;20093;-88
2022/11/20 12:23:12;;;;;;;6.25;3.10;;;11.40;81.00;;;;;;7377028;19;20081;-88
2022/11/20 12:25:42;;;;;;;9.90;4.03;;;11.40;81.00;;;;;;7376506;19;20039;-88
2022/11/20 12:28:41;;;;;;;7.63;3.55;;;11.40;81.10;;;;;;7377970;19;20014;-89
2022/11/20 12:31:45;;;;;;;6.82;3.60;;;11.50;81.20;;;;;;7393514;19;20030;-88
2022/11/20 12:34:27;;;;;;;4.82;3.20;;;11.30;81.30;;;;;;7384749;19;20052;-88
2022/11/20 12:37:14;;;;;;;7.53;3.45;;;11.40;81.90;;;;;;7376137;19;20011;-88
2022/11/20 12:39:45;;;;;;;7.88;3.50;;;11.40;81.90;;;;;;7376438;19;20050;-88
2022/11/20 12:45:36;;;;;;;8.00;3.63;;;11.50;82.00;;;;;;7276414;19;2004552;-88
2022/11/20 12:48:30;;;;;;;13.65;4.55;;;11.50;81.70;;;;;;7403580;19;20035;-88
2022/11/20 12:51:16;;;;;;;5.10;3.33;;;11.50;81.70;;;;;;7377390;19;20011;-87
2022/11/20 12:53:59;;;;;;;7.93;3.90;;;11.40;82.00;;;;;;7373404;19;20818;-87
2022/11/20 12:56:41;;;;;;;14.82;4.15;;;11.50;82.10;;;;;;7373285;19;20267;-88
2022/11/20 12:59:29;;;;;;;9.93;3.97;;;11.40;82.50;;;;;;7378262;19;20071;-87
2022/11/20 13:02:03;;;;;;;13.70;4.05;;;11.40;83.30;;;;;;7376900;19;20086;-87
2022/11/20 13:04:57;;;;;;;11.15;3.70;;;11.40;83.40;;;;;;7380295;19;20406;-88
2022/11/20 13:07:29;;;;;;;9.10;3.90;;;11.40;83.70;;;;;;7377244;19;20611;-88
2022/11/20 13:10:02;;;;;;;11.38;4.28;;;11.40;84.00;;;;;;7383311;19;20032;-87
2022/11/20 13:12:36;;;;;;;15.85;4.20;;;11.30;84.70;;;;;;7387207;19;20120;-88
2022/11/20 13:15:14;;;;;;;7.60;4.25;;;11.40;84.90;;;;;;7423797;19;20020;-87
2022/11/20 13:17:50;;;;;;;9.20;4.50;;;11.50;84.70;;;;;;7394163;19;20015;-88
2022/11/20 13:20:20;;;;;;;257.95;13.45;;;11.60;84.70;;;;;;7395162;19;20090;-88
2022/11/20 13:22:51;;;;;;;10.93;4.90;;;11.70;84.70;;;;;;7404767;19;20014;-87